Time;durP1;ratioP1;P1;durP2;ratioP2;P2;SDS_P1;SDS_P2;PMS_P1;PMS_P2;Temp;Humidity;BMP_temperature;BMP_pressure;BME280_temperature;BME280_humidity;BME280_pressure;Samples;Min_cycle;Max_cycle;Signal;HPM_P1;HPM_P2
2024/01/19 00:00:18;;;;;;;17.17;14.30;;;-0.90;99.90;;;;;;5072607;28;20230;-65
2024/01/19 00:02:44;;;;;;;11.70;10.50;;;-0.90;99.90;;;;;;5073366;28;20229;-65
2024/01/19 00:05:11;;;;;;;16.15;12.20;;;-0.90;99.90;;;;;;5073429;28;20296;-65
2024/01/19 00:07:39;;;;;;;16.27;12.43;;;-1.00;99.90;;;;;;5073212;28;20659;-65
2024/01/19 00:10:07;;;;;;;13.05;11.48;;;-1.00;99.90;;;;;;5063496;28;20232;-65
2024/01/19 00:12:35;;;;;;;14.68;11.52;;;-1.00;99.90;;;;;;5072084;28;20200;-65
2024/01/19 00:15:05;;;;;;;12.93;11.32;;;-1.00;99.90;;;;;;5072692;28;20201;-65
2024/01/19 00:17:32;;;;;;;15.10;10.45;;;-1.00;99.90;;;;;;5073271;28;20292;-65
2024/01/19 00:19:59;;;;;;;12.40;10.32;;;-1.10;99.90;;;;;;5072869;28;20673;-65
2024/01/19 00:22:26;;;;;;;11.75;10.23;;;-1.10;99.90;;;;;;5073211;28;20666;-65
2024/01/19 00:24:54;;;;;;;13.18;10.95;;;-1.10;99.90;;;;;;5072895;28;20202;-66
2024/01/19 00:27:21;;;;;;;16.60;12.25;;;-1.20;99.90;;;;;;5072716;28;20220;-65
2024/01/19 00:29:48;;;;;;;19.35;12.93;;;-1.20;99.90;;;;;;5072217;28;20232;-65
2024/01/19 00:32:15;;;;;;;19.38;12.70;;;-1.20;99.90;;;;;;5072488;28;20212;-65
2024/01/19 00:34:41;;;;;;;13.85;12.40;;;-1.30;99.90;;;;;;5072933;28;20297;-65
2024/01/19 00:37:08;;;;;;;18.88;13.10;;;-1.30;99.90;;;;;;5072471;28;20206;-65
2024/01/19 00:39:35;;;;;;;17.80;13.35;;;-1.30;99.90;;;;;;5072157;28;20221;-65
2024/01/19 00:42:04;;;;;;;18.20;13.73;;;-1.30;99.90;;;;;;5072239;28;20715;-65
2024/01/19 00:44:31;;;;;;;18.70;12.35;;;-1.30;99.90;;;;;;5067181;28;20215;-65
2024/01/19 00:46:58;;;;;;;17.90;12.82;;;-1.40;99.90;;;;;;5071912;28;20212;-65
2024/01/19 00:49:24;;;;;;;15.60;13.48;;;-1.40;99.90;;;;;;5070340;28;20630;-65
2024/01/19 00:51:52;;;;;;;13.63;12.32;;;-1.40;99.90;;;;;;5072128;28;20200;-65
2024/01/19 00:54:18;;;;;;;19.15;14.57;;;-1.40;99.90;;;;;;5070385;28;20245;-65
2024/01/19 00:56:45;;;;;;;18.67;14.18;;;-1.40;99.90;;;;;;5071689;28;20204;-65
2024/01/19 00:59:13;;;;;;;22.13;16.83;;;-1.40;99.90;;;;;;5072968;28;20208;-65
2024/01/19 01:01:40;;;;;;;18.58;14.02;;;-1.40;99.90;;;;;;5072692;28;20719;-65
2024/01/19 01:04:07;;;;;;;23.58;16.85;;;-1.40;99.90;;;;;;5072987;28;20212;-65
2024/01/19 01:06:33;;;;;;;19.75;16.45;;;-1.40;99.90;;;;;;5073150;28;20584;-65
2024/01/19 01:09:00;;;;;;;24.83;19.25;;;-1.40;99.90;;;;;;5073033;28;20212;-65
2024/01/19 01:11:28;;;;;;;20.35;15.80;;;-1.40;99.90;;;;;;5072753;28;20229;-65
2024/01/19 01:13:55;;;;;;;24.80;16.85;;;-1.30;99.90;;;;;;5073046;28;20209;-65
2024/01/19 01:16:23;;;;;;;30.63;18.15;;;-1.30;99.90;;;;;;5073085;28;20233;-65
2024/01/19 01:18:50;;;;;;;24.73;17.92;;;-1.20;99.90;;;;;;5072895;28;20332;-65
2024/01/19 01:21:17;;;;;;;26.05;17.45;;;-1.10;99.90;;;;;;5072498;28;20661;-65
2024/01/19 01:23:44;;;;;;;25.50;19.33;;;-1.00;99.90;;;;;;5072188;28;20206;-65
2024/01/19 01:26:11;;;;;;;27.02;17.65;;;-1.00;99.90;;;;;;5072693;28;20599;-65
2024/01/19 01:28:38;;;;;;;27.33;18.42;;;-1.00;99.90;;;;;;5072499;28;20580;-65
2024/01/19 01:31:05;;;;;;;21.75;18.00;;;-0.90;99.90;;;;;;5072179;28;20228;-65
2024/01/19 01:33:33;;;;;;;23.33;17.30;;;-0.90;99.90;;;;;;5071997;28;20206;-65
2024/01/19 01:36:00;;;;;;;26.35;16.38;;;-0.90;99.90;;;;;;5071470;28;20751;-65
2024/01/19 01:38:26;;;;;;;21.55;15.93;;;-1.00;99.90;;;;;;5072219;28;21034;-65
2024/01/19 01:40:54;;;;;;;19.48;15.80;;;-1.00;99.90;;;;;;5072372;28;20236;-65
2024/01/19 01:43:23;;;;;;;26.15;15.75;;;-1.10;99.90;;;;;;5072352;28;20235;-65
2024/01/19 01:45:50;;;;;;;18.25;14.40;;;-1.10;99.90;;;;;;5072298;28;20227;-65
2024/01/19 01:48:17;;;;;;;19.88;15.07;;;-1.20;99.90;;;;;;5072299;28;20647;-65
2024/01/19 01:50:46;;;;;;;18.25;14.68;;;-1.30;99.90;;;;;;5071732;28;20727;-65
2024/01/19 01:53:14;;;;;;;16.02;12.95;;;-1.30;99.90;;;;;;5072466;28;20209;-65
2024/01/19 01:55:41;;;;;;;17.67;13.35;;;-1.40;99.90;;;;;;5072330;28;20591;-65
2024/01/19 01:58:09;;;;;;;19.38;14.30;;;-1.40;99.90;;;;;;5072086;28;20205;-65
2024/01/19 02:00:38;;;;;;;23.63;15.43;;;-1.50;99.90;;;;;;5071745;28;20316;-65
2024/01/19 02:03:06;;;;;;;18.70;13.60;;;-1.50;99.90;;;;;;5070956;28;20222;-65
2024/01/19 02:05:33;;;;;;;19.05;12.52;;;-1.60;99.90;;;;;;5071356;28;20284;-65
2024/01/19 02:08:01;;;;;;;18.63;12.90;;;-1.70;99.90;;;;;;5072039;28;20631;-65
2024/01/19 02:10:28;;;;;;;20.45;13.63;;;-1.80;99.90;;;;;;5071903;28;20608;-65
2024/01/19 02:12:57;;;;;;;21.05;13.35;;;-1.80;99.90;;;;;;5072049;28;20626;-65
2024/01/19 02:15:25;;;;;;;20.02;14.48;;;-1.80;99.90;;;;;;5071841;28;20243;-65
2024/01/19 02:17:53;;;;;;;17.52;14.60;;;-1.90;99.90;;;;;;5071487;28;20833;-65
2024/01/19 02:20:21;;;;;;;19.30;15.82;;;-1.90;99.90;;;;;;5071271;28;20316;-65
2024/01/19 02:22:48;;;;;;;17.10;14.75;;;-1.90;99.90;;;;;;5071730;28;20403;-65
2024/01/19 02:25:17;;;;;;;18.90;13.25;;;-1.90;99.90;;;;;;5071871;28;20301;-65
2024/01/19 02:27:44;;;;;;;18.98;14.75;;;-2.00;99.90;;;;;;5071457;28;20212;-65
2024/01/19 02:30:11;;;;;;;20.48;14.43;;;-1.90;99.90;;;;;;5071238;28;20255;-65
2024/01/19 02:32:38;;;;;;;21.50;15.68;;;-2.00;99.90;;;;;;5071396;28;20233;-65
2024/01/19 02:35:06;;;;;;;22.10;13.07;;;-2.00;99.90;;;;;;5070792;28;20259;-65
2024/01/19 02:37:34;;;;;;;16.17;11.70;;;-2.00;99.90;;;;;;5070362;28;20297;-65
2024/01/19 02:40:01;;;;;;;19.08;14.52;;;-2.00;99.90;;;;;;5071293;28;20711;-65
2024/01/19 02:42:31;;;;;;;22.23;14.40;;;-2.10;99.90;;;;;;5071466;28;20228;-65
2024/01/19 02:44:59;;;;;;;16.17;13.80;;;-2.20;99.90;;;;;;5071380;28;20675;-65
2024/01/19 02:47:27;;;;;;;20.35;14.00;;;-2.30;99.90;;;;;;5071618;28;20675;-65
2024/01/19 02:49:54;;;;;;;20.48;14.50;;;-2.30;99.90;;;;;;5070931;28;20233;-65
2024/01/19 02:52:20;;;;;;;16.50;13.55;;;-2.40;99.90;;;;;;5071605;28;20206;-65
2024/01/19 02:54:48;;;;;;;24.00;15.00;;;-2.40;99.90;;;;;;5071359;28;20747;-65
2024/01/19 02:57:15;;;;;;;17.17;14.18;;;-2.40;99.90;;;;;;5071467;28;20227;-65
2024/01/19 02:59:43;;;;;;;22.95;15.75;;;-2.50;99.90;;;;;;5070988;28;20344;-65
2024/01/19 03:02:10;;;;;;;21.65;15.35;;;-2.50;99.90;;;;;;5071317;28;20320;-65
2024/01/19 03:04:37;;;;;;;20.40;15.93;;;-2.50;99.90;;;;;;5071144;28;20701;-65
2024/01/19 03:07:04;;;;;;;22.80;16.17;;;-2.60;99.90;;;;;;5070094;28;20210;-65
2024/01/19 03:09:31;;;;;;;20.10;15.52;;;-2.60;99.90;;;;;;5070830;28;20221;-65
2024/01/19 03:11:58;;;;;;;23.58;18.13;;;-2.50;99.90;;;;;;5070114;28;20312;-65
2024/01/19 03:14:25;;;;;;;20.73;15.68;;;-2.50;99.90;;;;;;5071034;28;20205;-64
2024/01/19 03:16:53;;;;;;;29.10;15.25;;;-2.40;99.90;;;;;;5071208;28;20198;-65
2024/01/19 03:19:20;;;;;;;22.33;15.50;;;-2.40;99.90;;;;;;5070837;28;20782;-65
2024/01/19 03:21:47;;;;;;;25.50;15.45;;;-2.40;99.90;;;;;;5070999;28;20212;-65
2024/01/19 03:24:13;;;;;;;25.33;16.90;;;-2.30;99.90;;;;;;5071101;28;20232;-65
2024/01/19 03:26:42;;;;;;;25.02;18.90;;;-2.30;99.90;;;;;;5071007;28;20216;-65
2024/01/19 03:29:08;;;;;;;26.35;17.52;;;-2.20;99.90;;;;;;5070955;28;20292;-65
2024/01/19 03:31:36;;;;;;;22.67;15.05;;;-2.20;99.90;;;;;;5070902;28;20206;-65
2024/01/19 03:34:04;;;;;;;28.15;17.92;;;-2.10;99.90;;;;;;5071071;28;20202;-65
2024/01/19 03:36:31;;;;;;;23.30;16.17;;;-2.10;99.90;;;;;;5071156;28;20216;-65
2024/01/19 03:38:58;;;;;;;28.70;18.75;;;-2.10;99.90;;;;;;5070904;28;20589;-65
2024/01/19 03:41:25;;;;;;;23.63;17.50;;;-2.00;99.90;;;;;;5070974;28;20210;-65
2024/01/19 03:43:51;;;;;;;34.85;18.13;;;-2.00;99.90;;;;;;5071051;28;20614;-65
2024/01/19 03:46:18;;;;;;;24.30;17.83;;;-2.00;99.90;;;;;;5071033;28;20241;-65
2024/01/19 03:48:45;;;;;;;21.35;18.42;;;-1.90;99.90;;;;;;5074332;28;20593;-65
2024/01/19 03:51:13;;;;;;;25.42;17.38;;;-1.90;99.90;;;;;;5096559;22;20242;-63
2024/01/19 03:53:43;;;;;;;19.83;15.25;;;-1.80;99.90;;;;;;5074192;28;20225;-63
2024/01/19 03:56:10;;;;;;;21.13;16.35;;;-1.80;99.90;;;;;;5074365;28;20225;-64
2024/01/19 03:58:37;;;;;;;25.27;16.42;;;-1.80;99.90;;;;;;5074279;28;20247;-64
2024/01/19 04:01:06;;;;;;;22.40;16.83;;;-1.70;99.90;;;;;;5074225;28;20313;-63
2024/01/19 04:03:33;;;;;;;24.08;15.43;;;-1.70;99.90;;;;;;5074408;28;20269;-64
2024/01/19 04:06:20;;;;;;;24.23;18.88;;;-1.70;99.90;;;;;;5074363;28;20205;-64
2024/01/19 04:08:48;;;;;;;18.45;15.85;;;-1.60;99.90;;;;;;5012095;28;20203;-64
2024/01/19 04:11:15;;;;;;;30.60;17.52;;;-1.60;99.90;;;;;;5011849;28;20269;-63
2024/01/19 04:13:42;;;;;;;26.40;16.42;;;-1.50;99.90;;;;;;5012058;28;20303;-63
2024/01/19 04:16:08;;;;;;;25.33;18.10;;;-1.50;99.90;;;;;;5003787;28;20232;-63
2024/01/19 04:18:35;;;;;;;27.63;18.33;;;-1.40;99.90;;;;;;5012115;28;20214;-63
2024/01/19 04:21:02;;;;;;;38.35;17.55;;;-1.40;99.90;;;;;;5011695;28;20254;-63
2024/01/19 04:23:29;;;;;;;26.40;20.55;;;-1.40;99.90;;;;;;5011973;28;20238;-63
2024/01/19 04:25:57;;;;;;;25.27;17.27;;;-1.40;99.90;;;;;;5011973;28;20267;-64
2024/01/19 04:28:24;;;;;;;25.95;18.20;;;-1.30;99.90;;;;;;5011822;28;20218;-63
2024/01/19 04:30:51;;;;;;;29.85;18.90;;;-1.30;99.90;;;;;;5011611;28;20318;-63
2024/01/19 04:33:17;;;;;;;33.65;19.73;;;-1.30;99.90;;;;;;5048493;28;20201;-63
2024/01/19 04:35:44;;;;;;;28.80;19.50;;;-1.20;99.90;;;;;;5074186;28;20205;-64
2024/01/19 04:38:11;;;;;;;25.05;18.40;;;-1.20;99.90;;;;;;5073790;28;20206;-64
2024/01/19 04:40:38;;;;;;;32.92;20.67;;;-1.20;99.90;;;;;;5073725;28;20225;-64
2024/01/19 04:43:07;;;;;;;29.45;20.08;;;-1.20;99.90;;;;;;5073769;28;20225;-64
2024/01/19 04:45:33;;;;;;;26.60;18.42;;;-1.20;99.90;;;;;;5073635;28;20198;-64
2024/01/19 04:48:00;;;;;;;27.50;17.90;;;-1.20;99.90;;;;;;5073449;28;20216;-64
2024/01/19 04:50:27;;;;;;;26.85;18.88;;;-1.20;99.90;;;;;;5073364;28;20237;-64
2024/01/19 04:52:54;;;;;;;29.95;18.70;;;-1.20;99.90;;;;;;5073469;28;20212;-64
2024/01/19 04:55:21;;;;;;;28.27;18.25;;;-1.20;99.90;;;;;;5073539;28;20207;-64
2024/01/19 04:57:48;;;;;;;25.58;19.27;;;-1.20;99.90;;;;;;5073345;28;20214;-64
2024/01/19 05:00:16;;;;;;;28.52;20.95;;;-1.10;99.90;;;;;;5072461;28;20776;-64
2024/01/19 05:02:44;;;;;;;38.67;21.27;;;-1.20;99.90;;;;;;5073403;28;20321;-64
2024/01/19 05:05:11;;;;;;;26.33;19.50;;;-1.10;99.90;;;;;;5073245;28;20237;-64
2024/01/19 05:07:37;;;;;;;32.78;20.98;;;-1.10;99.90;;;;;;5073254;28;20308;-64
2024/01/19 05:10:05;;;;;;;27.98;21.75;;;-1.10;99.90;;;;;;5072860;28;20226;-64
2024/01/19 05:12:32;;;;;;;27.40;18.40;;;-1.10;99.90;;;;;;5073178;28;20564;-64
2024/01/19 05:14:59;;;;;;;29.13;21.65;;;-1.10;99.90;;;;;;5072878;28;20201;-64
2024/01/19 05:17:27;;;;;;;26.17;20.27;;;-1.10;99.90;;;;;;5073161;28;20579;-64
2024/01/19 05:19:55;;;;;;;32.53;21.33;;;-1.10;99.90;;;;;;5072884;28;20712;-64
2024/01/19 05:22:22;;;;;;;29.70;21.58;;;-1.10;99.90;;;;;;5073014;28;20316;-64
2024/01/19 05:24:50;;;;;;;33.55;20.30;;;-1.10;99.90;;;;;;5072750;28;20883;-64
2024/01/19 05:27:17;;;;;;;29.15;20.00;;;-1.00;99.90;;;;;;5072794;28;20297;-64
2024/01/19 05:29:44;;;;;;;24.48;19.27;;;-1.00;99.90;;;;;;5072275;28;20231;-64
2024/01/19 05:32:11;;;;;;;29.88;21.80;;;-1.00;99.90;;;;;;5072902;28;20288;-65
2024/01/19 05:34:39;;;;;;;32.22;20.95;;;-1.00;99.90;;;;;;5072540;28;20201;-64
2024/01/19 05:37:06;;;;;;;30.83;20.63;;;-1.10;99.90;;;;;;5072621;28;20212;-65
2024/01/19 05:39:33;;;;;;;30.75;20.60;;;-1.10;99.90;;;;;;5072337;28;20763;-64
2024/01/19 05:42:00;;;;;;;25.10;20.33;;;-1.20;99.90;;;;;;5071915;28;20297;-64
2024/01/19 05:44:26;;;;;;;29.63;19.95;;;-1.20;99.90;;;;;;5072170;28;20217;-64
2024/01/19 05:46:53;;;;;;;24.85;20.13;;;-1.30;99.90;;;;;;5072562;28;20215;-64
2024/01/19 05:49:20;;;;;;;23.30;18.65;;;-1.30;99.90;;;;;;5072155;28;20296;-64
2024/01/19 05:51:48;;;;;;;34.60;21.92;;;-1.30;99.90;;;;;;5071986;28;20206;-64
2024/01/19 05:54:15;;;;;;;28.33;19.67;;;-1.30;99.90;;;;;;5072099;28;20659;-64
2024/01/19 05:56:42;;;;;;;31.70;21.70;;;-1.30;99.90;;;;;;5071814;28;20204;-63
2024/01/19 05:59:08;;;;;;;35.50;22.42;;;-1.30;99.90;;;;;;5072244;28;20304;-64
2024/01/19 06:01:35;;;;;;;31.67;20.05;;;-1.30;99.90;;;;;;5071680;28;20734;-64
2024/01/19 06:04:02;;;;;;;29.10;20.58;;;-1.30;99.90;;;;;;5072045;28;20226;-64
2024/01/19 06:06:29;;;;;;;33.30;20.55;;;-1.30;99.90;;;;;;5071847;28;20210;-64
2024/01/19 06:08:57;;;;;;;31.05;22.25;;;-1.30;99.90;;;;;;5071958;28;20205;-64
2024/01/19 06:11:24;;;;;;;32.15;22.13;;;-1.30;99.90;;;;;;5070620;28;20232;-63
2024/01/19 06:13:51;;;;;;;28.27;22.00;;;-1.30;99.90;;;;;;5072093;28;20205;-64
2024/01/19 06:16:18;;;;;;;28.13;21.13;;;-1.30;99.90;;;;;;5071539;28;20210;-64
2024/01/19 06:18:45;;;;;;;28.38;19.38;;;-1.30;99.90;;;;;;5071511;28;20212;-64
2024/01/19 06:21:12;;;;;;;30.80;20.33;;;-1.30;99.90;;;;;;5071091;28;20221;-64
2024/01/19 06:23:39;;;;;;;30.63;21.45;;;-1.30;99.90;;;;;;5071083;28;20221;-63
2024/01/19 06:26:10;;;;;;;31.60;20.30;;;-1.30;99.90;;;;;;5070830;28;20228;-64
2024/01/19 06:28:37;;;;;;;31.75;21.40;;;-1.30;99.90;;;;;;5071586;28;20210;-64
2024/01/19 06:31:05;;;;;;;25.48;19.52;;;-1.30;99.90;;;;;;5071596;28;20222;-64
2024/01/19 06:33:31;;;;;;;28.70;19.35;;;-1.40;99.90;;;;;;5071796;28;20206;-64
2024/01/19 06:35:58;;;;;;;34.97;19.65;;;-1.40;99.90;;;;;;5071644;28;20675;-64
2024/01/19 06:38:25;;;;;;;35.33;23.40;;;-1.40;99.90;;;;;;5069184;28;20225;-63
2024/01/19 06:40:52;;;;;;;34.47;22.55;;;-1.40;99.90;;;;;;5059026;28;20925;-64
2024/01/19 06:43:20;;;;;;;32.55;23.48;;;-1.40;99.90;;;;;;5070647;28;20300;-64
2024/01/19 06:45:47;;;;;;;30.52;23.42;;;-1.40;99.90;;;;;;5071311;28;20301;-64
2024/01/19 06:48:14;;;;;;;30.20;21.75;;;-1.30;99.90;;;;;;5071188;28;20659;-64
2024/01/19 06:50:41;;;;;;;36.15;23.48;;;-1.30;99.90;;;;;;5070659;28;20229;-64
2024/01/19 06:53:08;;;;;;;29.83;22.27;;;-1.30;99.90;;;;;;5070916;28;20213;-64
2024/01/19 06:55:34;;;;;;;38.40;23.02;;;-1.20;99.90;;;;;;5071039;28;20232;-64
2024/01/19 06:58:01;;;;;;;34.72;23.40;;;-1.30;99.90;;;;;;5071021;28;20209;-64
2024/01/19 07:00:29;;;;;;;42.00;23.80;;;-1.30;99.90;;;;;;5070578;28;20802;-64
2024/01/19 07:02:56;;;;;;;32.83;22.83;;;-1.30;99.90;;;;;;5070979;28;20217;-64
2024/01/19 07:05:23;;;;;;;35.70;21.67;;;-1.20;99.90;;;;;;5070760;28;20225;-63
2024/01/19 07:07:50;;;;;;;41.05;21.00;;;-1.20;99.90;;;;;;5070962;28;20201;-64
2024/01/19 07:10:17;;;;;;;35.30;21.45;;;-1.20;99.90;;;;;;5070914;28;20229;-64
2024/01/19 07:12:43;;;;;;;27.10;21.48;;;-1.10;99.90;;;;;;5070964;28;20308;-64
2024/01/19 07:15:10;;;;;;;34.88;23.13;;;-1.10;99.90;;;;;;5071242;28;20293;-64
2024/01/19 07:17:38;;;;;;;33.78;20.90;;;-1.10;99.90;;;;;;5070796;28;20209;-64
2024/01/19 07:20:07;;;;;;;33.50;21.38;;;-1.00;99.90;;;;;;5070636;28;20221;-63
2024/01/19 07:22:34;;;;;;;32.25;21.25;;;-1.10;99.90;;;;;;5072186;28;20205;-64
2024/01/19 07:25:01;;;;;;;30.60;22.88;;;-1.00;99.90;;;;;;5075039;28;20236;-64
2024/01/19 07:27:28;;;;;;;33.70;18.65;;;-1.00;99.90;;;;;;5074361;28;20210;-64
2024/01/19 07:29:55;;;;;;;33.00;20.48;;;-0.90;99.90;;;;;;5074190;28;20667;-64
2024/01/19 07:32:24;;;;;;;28.30;20.10;;;-0.90;99.90;;;;;;5074685;28;20232;-64
2024/01/19 07:34:53;;;;;;;28.55;20.88;;;-0.90;99.90;;;;;;5074422;28;20229;-63
2024/01/19 07:37:20;;;;;;;30.70;20.23;;;-0.90;99.90;;;;;;5074422;28;20210;-64
2024/01/19 07:39:47;;;;;;;27.40;19.40;;;-0.90;99.90;;;;;;5074022;28;20312;-64
2024/01/19 07:42:14;;;;;;;22.98;17.33;;;-0.90;99.90;;;;;;5074362;28;20209;-64
2024/01/19 07:44:41;;;;;;;24.33;18.80;;;-0.90;99.90;;;;;;5074363;28;20228;-64
2024/01/19 07:47:07;;;;;;;24.38;18.98;;;-0.90;99.90;;;;;;5074161;28;20301;-64
2024/01/19 07:49:34;;;;;;;31.67;18.55;;;-0.90;99.90;;;;;;5074408;28;20205;-64
2024/01/19 07:52:02;;;;;;;34.80;22.17;;;-0.90;99.90;;;;;;5074150;28;20209;-64
2024/01/19 07:54:29;;;;;;;28.63;20.40;;;-0.90;99.90;;;;;;5073788;28;20211;-64
2024/01/19 07:56:56;;;;;;;27.77;18.27;;;-0.90;99.90;;;;;;5073925;28;20205;-63
2024/01/19 07:59:23;;;;;;;30.17;17.75;;;-0.90;99.90;;;;;;5072164;28;20434;-63
2024/01/19 08:01:50;;;;;;;22.60;15.88;;;-0.90;99.90;;;;;;5072165;28;20205;-64
2024/01/19 08:04:18;;;;;;;27.17;18.88;;;-0.90;99.90;;;;;;5068066;28;20236;-64
2024/01/19 08:06:44;;;;;;;25.55;17.60;;;-1.00;99.90;;;;;;5073031;28;20229;-64
2024/01/19 08:09:13;;;;;;;31.90;18.42;;;-1.00;99.90;;;;;;5073183;28;20579;-63
2024/01/19 08:11:40;;;;;;;30.23;18.20;;;-1.00;99.90;;;;;;5073407;28;20247;-64
2024/01/19 08:14:07;;;;;;;17.50;15.70;;;-1.10;99.90;;;;;;5073046;28;20285;-64
2024/01/19 08:16:34;;;;;;;25.67;17.05;;;-1.10;99.90;;;;;;5073289;28;20292;-64
2024/01/19 08:19:02;;;;;;;21.05;16.23;;;-1.20;99.90;;;;;;5073073;28;20568;-64
2024/01/19 08:21:29;;;;;;;21.98;15.30;;;-1.30;99.90;;;;;;5073175;28;20704;-64
2024/01/19 08:23:57;;;;;;;17.98;14.60;;;-1.40;99.90;;;;;;5073008;28;20221;-64
2024/01/19 08:26:25;;;;;;;15.40;12.85;;;-1.50;99.90;;;;;;5071839;28;20212;-64
2024/01/19 08:28:52;;;;;;;20.73;12.95;;;-1.60;99.90;;;;;;5067204;28;20216;-64
2024/01/19 08:31:18;;;;;;;22.13;12.32;;;-1.60;99.90;;;;;;5072026;28;20742;-64
2024/01/19 08:33:45;;;;;;;18.40;11.57;;;-1.60;99.90;;;;;;5072563;28;20202;-64
2024/01/19 08:36:12;;;;;;;20.50;14.13;;;-1.70;99.90;;;;;;5072608;28;20668;-65
2024/01/19 08:38:39;;;;;;;17.02;12.50;;;-1.80;99.90;;;;;;5073553;28;20202;-65
2024/01/19 08:41:06;;;;;;;15.10;12.88;;;-1.80;99.90;;;;;;5072665;28;20604;-64
2024/01/19 08:43:34;;;;;;;20.45;14.30;;;-1.80;99.90;;;;;;5072617;28;20212;-63
2024/01/19 08:46:03;;;;;;;17.00;12.75;;;-1.90;99.90;;;;;;5073226;28;20202;-63
2024/01/19 08:48:31;;;;;;;21.33;15.52;;;-1.90;99.90;;;;;;5072479;28;20296;-64
2024/01/19 08:50:58;;;;;;;19.92;15.15;;;-1.90;99.90;;;;;;5072327;28;20347;-64
2024/01/19 08:53:26;;;;;;;22.17;15.77;;;-2.00;99.90;;;;;;5072395;28;20292;-63
2024/01/19 08:55:52;;;;;;;20.02;13.70;;;-2.00;99.90;;;;;;5070374;28;20802;-64
2024/01/19 08:58:20;;;;;;;22.48;16.13;;;-2.00;99.90;;;;;;5072589;28;20212;-64
2024/01/19 09:00:48;;;;;;;22.23;15.60;;;-2.10;99.90;;;;;;5071650;28;20226;-63
2024/01/19 09:03:16;;;;;;;22.33;16.88;;;-2.10;99.90;;;;;;5072192;28;20213;-64
2024/01/19 09:05:43;;;;;;;23.35;16.95;;;-2.10;99.90;;;;;;5071947;28;20218;-64
2024/01/19 09:08:10;;;;;;;20.73;15.52;;;-2.10;99.90;;;;;;5071481;28;20730;-63
2024/01/19 09:10:37;;;;;;;23.85;13.88;;;-2.10;99.90;;;;;;5064350;28;20226;-64
2024/01/19 09:13:04;;;;;;;17.98;13.65;;;-2.10;99.90;;;;;;5065581;28;20646;-64
2024/01/19 09:15:31;;;;;;;21.48;14.70;;;-2.20;99.90;;;;;;5069872;28;20642;-64
2024/01/19 09:17:59;;;;;;;22.98;15.77;;;-2.20;99.90;;;;;;5067532;28;20205;-63
2024/01/19 09:20:26;;;;;;;19.73;14.02;;;-2.20;99.90;;;;;;5067895;28;20222;-64
2024/01/19 09:22:53;;;;;;;22.75;16.23;;;-2.30;99.90;;;;;;5069776;28;20745;-63
2024/01/19 09:25:20;;;;;;;21.63;17.42;;;-2.20;99.90;;;;;;5070249;28;20587;-64
2024/01/19 09:27:47;;;;;;;23.80;16.63;;;-2.20;99.90;;;;;;5062485;28;20674;-64
2024/01/19 09:30:16;;;;;;;20.83;14.73;;;-2.30;99.90;;;;;;5066904;28;20226;-64
2024/01/19 09:32:42;;;;;;;21.65;16.60;;;-2.20;99.90;;;;;;5065835;28;20660;-63
2024/01/19 09:35:11;;;;;;;25.33;17.20;;;-2.30;99.90;;;;;;5067708;28;20206;-64
2024/01/19 09:37:38;;;;;;;21.42;15.10;;;-2.20;99.90;;;;;;5071338;28;20210;-63
2024/01/19 09:40:05;;;;;;;20.15;13.95;;;-2.20;99.90;;;;;;5071880;28;20243;-63
2024/01/19 09:42:34;;;;;;;21.48;14.95;;;-2.20;99.90;;;;;;5072003;28;20205;-64
2024/01/19 09:45:04;;;;;;;19.10;13.60;;;-2.20;99.90;;;;;;5071613;28;20275;-64
2024/01/19 09:47:39;;;;;;;26.48;17.90;;;-2.20;99.90;;;;;;5071751;28;20210;-64
2024/01/19 09:50:07;;;;;;;23.75;18.60;;;-2.00;99.90;;;;;;5070821;28;20233;-64
2024/01/19 09:52:43;;;;;;;31.83;18.33;;;-1.80;99.90;;;;;;5059588;22;20245;-66
2024/01/19 09:55:11;;;;;;;28.80;22.13;;;-1.60;99.90;;;;;;5031595;28;20210;-65
2024/01/19 09:57:46;;;;;;;28.40;20.73;;;-1.30;99.90;;;;;;5023985;28;20211;-66
2024/01/19 10:00:14;;;;;;;27.75;18.75;;;-1.10;99.90;;;;;;5031532;28;20214;-65
2024/01/19 10:02:46;;;;;;;28.85;19.73;;;-0.90;99.90;;;;;;5031758;28;20265;-65
2024/01/19 10:05:13;;;;;;;30.30;18.40;;;-0.80;99.90;;;;;;5028445;28;20234;-65
2024/01/19 10:07:44;;;;;;;34.13;19.52;;;-0.60;99.90;;;;;;5031825;28;20696;-65
2024/01/19 10:10:11;;;;;;;27.33;19.70;;;-0.60;99.90;;;;;;5031669;28;20302;-65
2024/01/19 10:12:39;;;;;;;32.80;20.73;;;-0.50;99.90;;;;;;5030850;28;20222;-66
2024/01/19 10:15:09;;;;;;;22.98;17.75;;;-0.30;99.90;;;;;;5031429;28;20210;-65
2024/01/19 10:17:37;;;;;;;22.67;17.00;;;-0.10;99.90;;;;;;5031305;28;20591;-65
2024/01/19 10:20:06;;;;;;;22.08;16.67;;;0.00;99.90;;;;;;5031087;28;20218;-66
2024/01/19 10:22:33;;;;;;;23.45;16.45;;;0.10;99.90;;;;;;5031279;28;20222;-65
2024/01/19 10:25:02;;;;;;;19.33;14.90;;;0.10;99.90;;;;;;5031419;28;20696;-65
2024/01/19 10:27:40;;;;;;;26.15;17.17;;;0.20;99.90;;;;;;5028226;28;20597;-65
2024/01/19 10:30:12;;;;;;;19.00;14.80;;;0.30;99.90;;;;;;5022594;28;20257;-65
2024/01/19 10:32:40;;;;;;;23.23;14.75;;;0.30;99.90;;;;;;5030650;28;20271;-65
2024/01/19 10:35:09;;;;;;;23.52;17.15;;;0.40;99.90;;;;;;5029541;28;20207;-65
2024/01/19 10:37:36;;;;;;;23.58;15.23;;;0.40;99.90;;;;;;5029847;28;20206;-66
2024/01/19 10:40:31;;;;;;;22.35;15.88;;;0.50;99.90;;;;;;5029602;28;20573;-65
2024/01/19 10:42:59;;;;;;;22.00;14.75;;;0.50;99.90;;;;;;4979687;28;20277;-64
2024/01/19 10:45:28;;;;;;;19.48;14.52;;;0.50;99.90;;;;;;5030844;28;20223;-64
2024/01/19 10:47:57;;;;;;;26.25;18.45;;;0.50;99.90;;;;;;5031042;28;20234;-65
2024/01/19 10:50:26;;;;;;;23.67;17.65;;;0.60;99.90;;;;;;5030676;28;20209;-65
2024/01/19 10:52:54;;;;;;;21.30;15.65;;;0.60;99.90;;;;;;5030930;28;20217;-65
2024/01/19 10:55:23;;;;;;;23.77;16.52;;;0.70;99.90;;;;;;5030485;28;20205;-65
2024/01/19 10:57:52;;;;;;;17.70;13.23;;;0.70;99.90;;;;;;5035439;28;20213;-64
2024/01/19 11:00:24;;;;;;;25.60;15.23;;;0.70;99.90;;;;;;5023632;28;20238;-65
2024/01/19 11:02:54;;;;;;;22.02;16.02;;;0.80;99.90;;;;;;5034906;28;20203;-65
2024/01/19 11:05:21;;;;;;;21.88;15.05;;;0.90;99.90;;;;;;5036838;28;20594;-65
2024/01/19 11:07:51;;;;;;;20.38;15.30;;;1.00;99.90;;;;;;5036833;28;20210;-65
2024/01/19 11:10:20;;;;;;;24.65;17.23;;;1.10;99.90;;;;;;5036736;28;20265;-65
2024/01/19 11:12:51;;;;;;;28.50;17.95;;;1.20;99.90;;;;;;5036870;28;20234;-64
2024/01/19 11:15:31;;;;;;;21.83;14.10;;;1.40;99.90;;;;;;5036866;28;20206;-64
2024/01/19 11:18:01;;;;;;;18.98;14.32;;;1.50;99.90;;;;;;5036849;28;20245;-64
2024/01/19 11:20:31;;;;;;;21.00;15.48;;;1.50;99.90;;;;;;5036739;28;20228;-64
2024/01/19 11:22:58;;;;;;;15.68;13.70;;;1.50;99.90;;;;;;5037151;28;20215;-64
2024/01/19 11:25:37;;;;;;;18.13;14.38;;;1.50;99.90;;;;;;5038257;28;20222;-64
2024/01/19 11:28:12;;;;;;;15.63;13.20;;;1.50;99.90;;;;;;5040979;28;20213;-64
2024/01/19 11:31:01;;;;;;;19.20;14.95;;;1.50;99.90;;;;;;5036240;28;20207;-65
2024/01/19 11:33:32;;;;;;;19.58;16.35;;;1.40;99.90;;;;;;5036232;28;20203;-65
2024/01/19 11:35:59;;;;;;;18.58;16.42;;;1.50;99.90;;;;;;5036846;28;20210;-64
2024/01/19 11:38:45;;;;;;;18.10;13.60;;;1.40;99.90;;;;;;5036658;28;20293;-64
2024/01/19 11:41:44;;;;;;;19.48;15.48;;;1.40;99.90;;;;;;5036282;28;20226;-64
2024/01/19 11:44:31;;;;;;;16.00;13.85;;;1.40;99.90;;;;;;5036714;28;20207;-64
2024/01/19 11:46:59;;;;;;;19.52;14.20;;;1.40;99.90;;;;;;5036575;28;20215;-65
2024/01/19 11:49:47;;;;;;;18.63;15.48;;;1.40;99.90;;;;;;5036254;28;20211;-64
2024/01/19 11:52:38;;;;;;;18.65;13.20;;;1.30;99.90;;;;;;5025550;28;20247;-65
2024/01/19 11:55:40;;;;;;;21.05;14.93;;;1.30;99.90;;;;;;5036665;28;20253;-65
2024/01/19 11:58:34;;;;;;;23.08;15.77;;;1.30;99.90;;;;;;5031999;28;20210;-65
2024/01/19 12:01:03;;;;;;;30.45;14.65;;;1.30;99.90;;;;;;5036855;28;20293;-65
2024/01/19 12:03:31;;;;;;;25.48;16.65;;;1.30;99.90;;;;;;5035482;28;20288;-64
2024/01/19 12:06:01;;;;;;;34.75;21.48;;;1.40;99.90;;;;;;5035449;28;20748;-65
2024/01/19 12:08:28;;;;;;;25.80;15.63;;;1.40;99.90;;;;;;5034023;28;20586;-65
2024/01/19 12:11:11;;;;;;;26.63;18.95;;;1.40;99.90;;;;;;5033036;28;20222;-65
2024/01/19 12:13:40;;;;;;;21.65;14.95;;;1.40;99.90;;;;;;5034012;28;20237;-65
2024/01/19 12:16:07;;;;;;;18.85;13.90;;;1.40;99.90;;;;;;5036041;28;20202;-64
2024/01/19 12:18:37;;;;;;;16.90;12.50;;;1.40;99.90;;;;;;5032949;28;20253;-64
2024/01/19 12:21:05;;;;;;;21.05;12.80;;;1.30;99.90;;;;;;5032816;28;20887;-65
2024/01/19 12:23:33;;;;;;;15.30;11.90;;;1.30;99.90;;;;;;5033477;28;20210;-65
2024/01/19 12:26:03;;;;;;;17.98;13.20;;;1.20;99.90;;;;;;5030115;28;20223;-64
2024/01/19 12:28:31;;;;;;;18.27;13.05;;;1.10;99.90;;;;;;5030127;28;20237;-64
2024/01/19 12:30:58;;;;;;;19.55;14.35;;;1.00;99.90;;;;;;5023699;28;20227;-64
2024/01/19 12:33:28;;;;;;;15.30;12.80;;;1.10;99.90;;;;;;5029607;28;20207;-65